sensor_id;sensor_type;location;lat;lon;timestamp;P1;durP1;ratioP1;P2;durP2;ratioP2
23802;SDS011;12082;51.786;6.018;2022-12-11T00:01:10;84.43;;;40.90;;
23802;SDS011;12082;51.786;6.018;2022-12-11T00:03:36;108.40;;;42.00;;
23802;SDS011;12082;51.786;6.018;2022-12-11T00:06:04;91.20;;;42.20;;
23802;SDS011;12082;51.786;6.018;2022-12-11T00:08:30;95.50;;;38.97;;
23802;SDS011;12082;51.786;6.018;2022-12-11T00:10:56;92.70;;;39.40;;
23802;SDS011;12082;51.786;6.018;2022-12-11T00:13:22;96.93;;;39.67;;
23802;SDS011;12082;51.786;6.018;2022-12-11T00:15:48;94.70;;;39.23;;
23802;SDS011;12082;51.786;6.018;2022-12-11T00:18:14;102.83;;;42.43;;
23802;SDS011;12082;51.786;6.018;2022-12-11T00:20:40;99.87;;;42.07;;
23802;SDS011;12082;51.786;6.018;2022-12-11T00:23:06;99.10;;;40.93;;
23802;SDS011;12082;51.786;6.018;2022-12-11T00:25:31;104.03;;;41.13;;
23802;SDS011;12082;51.786;6.018;2022-12-11T00:27:57;96.50;;;40.30;;
23802;SDS011;12082;51.786;6.018;2022-12-11T00:30:23;82.40;;;39.47;;
23802;SDS011;12082;51.786;6.018;2022-12-11T00:32:52;101.50;;;41.00;;
23802;SDS011;12082;51.786;6.018;2022-12-11T00:35:18;104.40;;;41.87;;
23802;SDS011;12082;51.786;6.018;2022-12-11T00:37:44;88.47;;;40.57;;
23802;SDS011;12082;51.786;6.018;2022-12-11T00:40:10;106.13;;;40.83;;
23802;SDS011;12082;51.786;6.018;2022-12-11T00:42:36;95.37;;;40.33;;
23802;SDS011;12082;51.786;6.018;2022-12-11T00:45:02;99.37;;;39.87;;
23802;SDS011;12082;51.786;6.018;2022-12-11T00:47:28;103.40;;;44.17;;
23802;SDS011;12082;51.786;6.018;2022-12-11T00:49:54;104.43;;;43.67;;
23802;SDS011;12082;51.786;6.018;2022-12-11T00:52:20;86.80;;;41.13;;
23802;SDS011;12082;51.786;6.018;2022-12-11T00:54:46;92.30;;;39.97;;
23802;SDS011;12082;51.786;6.018;2022-12-11T00:57:12;100.43;;;41.87;;
23802;SDS011;12082;51.786;6.018;2022-12-11T00:59:38;90.50;;;40.87;;
23802;SDS011;12082;51.786;6.018;2022-12-11T01:02:04;92.00;;;39.67;;
23802;SDS011;12082;51.786;6.018;2022-12-11T01:04:30;95.10;;;39.63;;
23802;SDS011;12082;51.786;6.018;2022-12-11T01:06:56;87.37;;;38.43;;
23802;SDS011;12082;51.786;6.018;2022-12-11T01:09:22;95.53;;;38.93;;
23802;SDS011;12082;51.786;6.018;2022-12-11T01:12:07;95.63;;;40.63;;
23802;SDS011;12082;51.786;6.018;2022-12-11T01:14:33;92.33;;;40.53;;
23802;SDS011;12082;51.786;6.018;2022-12-11T01:16:58;99.73;;;39.87;;
23802;SDS011;12082;51.786;6.018;2022-12-11T01:19:24;85.97;;;41.40;;
23802;SDS011;12082;51.786;6.018;2022-12-11T01:21:50;93.33;;;40.23;;
23802;SDS011;12082;51.786;6.018;2022-12-11T01:24:16;87.63;;;40.40;;
23802;SDS011;12082;51.786;6.018;2022-12-11T01:26:42;95.70;;;40.57;;
23802;SDS011;12082;51.786;6.018;2022-12-11T01:29:08;84.97;;;39.90;;
23802;SDS011;12082;51.786;6.018;2022-12-11T01:31:35;88.87;;;39.70;;
23802;SDS011;12082;51.786;6.018;2022-12-11T01:34:02;91.00;;;41.97;;
23802;SDS011;12082;51.786;6.018;2022-12-11T01:36:28;99.57;;;41.53;;
23802;SDS011;12082;51.786;6.018;2022-12-11T01:38:54;93.73;;;41.10;;
23802;SDS011;12082;51.786;6.018;2022-12-11T01:41:20;110.47;;;41.47;;
23802;SDS011;12082;51.786;6.018;2022-12-11T01:44:05;103.97;;;40.53;;
23802;SDS011;12082;51.786;6.018;2022-12-11T01:46:33;104.10;;;40.97;;
23802;SDS011;12082;51.786;6.018;2022-12-11T01:49:00;112.50;;;41.07;;
23802;SDS011;12082;51.786;6.018;2022-12-11T01:51:28;114.97;;;43.00;;
23802;SDS011;12082;51.786;6.018;2022-12-11T01:54:01;98.67;;;41.60;;
23802;SDS011;12082;51.786;6.018;2022-12-11T01:56:30;108.73;;;43.17;;
23802;SDS011;12082;51.786;6.018;2022-12-11T01:58:58;97.97;;;40.43;;
23802;SDS011;12082;51.786;6.018;2022-12-11T02:01:48;104.50;;;39.80;;
23802;SDS011;12082;51.786;6.018;2022-12-11T02:04:14;95.30;;;39.97;;
23802;SDS011;12082;51.786;6.018;2022-12-11T02:06:41;102.20;;;40.30;;
23802;SDS011;12082;51.786;6.018;2022-12-11T02:09:09;101.53;;;42.27;;
23802;SDS011;12082;51.786;6.018;2022-12-11T02:16:40;130.40;;;44.77;;
23802;SDS011;12082;51.786;6.018;2022-12-11T02:21:37;113.60;;;42.10;;
23802;SDS011;12082;51.786;6.018;2022-12-11T02:24:10;102.67;;;42.63;;
23802;SDS011;12082;51.786;6.018;2022-12-11T02:27:25;116.20;;;43.20;;
23802;SDS011;12082;51.786;6.018;2022-12-11T02:32:12;106.13;;;41.63;;
23802;SDS011;12082;51.786;6.018;2022-12-11T02:34:42;111.00;;;44.50;;
23802;SDS011;12082;51.786;6.018;2022-12-11T02:37:11;110.37;;;42.63;;
23802;SDS011;12082;51.786;6.018;2022-12-11T02:39:39;105.30;;;43.80;;
23802;SDS011;12082;51.786;6.018;2022-12-11T02:42:06;118.27;;;44.67;;
23802;SDS011;12082;51.786;6.018;2022-12-11T02:44:34;102.40;;;41.90;;
23802;SDS011;12082;51.786;6.018;2022-12-11T02:47:01;110.30;;;42.83;;
23802;SDS011;12082;51.786;6.018;2022-12-11T02:49:28;116.10;;;45.03;;
23802;SDS011;12082;51.786;6.018;2022-12-11T02:51:56;101.57;;;44.20;;
23802;SDS011;12082;51.786;6.018;2022-12-11T02:54:27;113.50;;;44.27;;
23802;SDS011;12082;51.786;6.018;2022-12-11T02:57:02;100.90;;;43.73;;
23802;SDS011;12082;51.786;6.018;2022-12-11T02:59:38;89.23;;;41.63;;
23802;SDS011;12082;51.786;6.018;2022-12-11T03:02:05;101.90;;;42.97;;
23802;SDS011;12082;51.786;6.018;2022-12-11T03:04:32;110.00;;;45.10;;
23802;SDS011;12082;51.786;6.018;2022-12-11T03:07:00;101.53;;;44.40;;
23802;SDS011;12082;51.786;6.018;2022-12-11T03:09:35;125.63;;;47.33;;
23802;SDS011;12082;51.786;6.018;2022-12-11T03:12:01;105.20;;;45.50;;
23802;SDS011;12082;51.786;6.018;2022-12-11T03:14:27;99.33;;;43.63;;
23802;SDS011;12082;51.786;6.018;2022-12-11T03:17:04;101.93;;;44.37;;
23802;SDS011;12082;51.786;6.018;2022-12-11T03:22:19;104.27;;;42.53;;
23802;SDS011;12082;51.786;6.018;2022-12-11T03:24:49;113.43;;;43.97;;
23802;SDS011;12082;51.786;6.018;2022-12-11T03:27:26;100.03;;;45.63;;
23802;SDS011;12082;51.786;6.018;2022-12-11T03:29:56;115.53;;;44.50;;
23802;SDS011;12082;51.786;6.018;2022-12-11T03:32:26;110.17;;;43.97;;
23802;SDS011;12082;51.786;6.018;2022-12-11T03:35:29;103.60;;;46.47;;
23802;SDS011;12082;51.786;6.018;2022-12-11T03:37:46;120.70;;;46.60;;
23802;SDS011;12082;51.786;6.018;2022-12-11T03:40:14;110.37;;;47.27;;
23802;SDS011;12082;51.786;6.018;2022-12-11T03:42:40;104.43;;;47.77;;
23802;SDS011;12082;51.786;6.018;2022-12-11T03:45:08;107.07;;;44.90;;
23802;SDS011;12082;51.786;6.018;2022-12-11T03:47:35;115.07;;;44.10;;
23802;SDS011;12082;51.786;6.018;2022-12-11T03:50:02;110.87;;;50.77;;
23802;SDS011;12082;51.786;6.018;2022-12-11T03:52:30;102.30;;;45.80;;
23802;SDS011;12082;51.786;6.018;2022-12-11T03:54:58;119.47;;;48.60;;
23802;SDS011;12082;51.786;6.018;2022-12-11T03:57:25;112.07;;;46.10;;
23802;SDS011;12082;51.786;6.018;2022-12-11T03:59:53;111.60;;;48.83;;
23802;SDS011;12082;51.786;6.018;2022-12-11T04:02:19;100.43;;;46.70;;
23802;SDS011;12082;51.786;6.018;2022-12-11T04:04:45;108.73;;;45.77;;
23802;SDS011;12082;51.786;6.018;2022-12-11T04:07:11;118.13;;;46.30;;
23802;SDS011;12082;51.786;6.018;2022-12-11T04:09:37;96.93;;;47.63;;
23802;SDS011;12082;51.786;6.018;2022-12-11T04:12:03;96.67;;;45.23;;
23802;SDS011;12082;51.786;6.018;2022-12-11T04:14:29;107.90;;;46.33;;
23802;SDS011;12082;51.786;6.018;2022-12-11T04:17:14;102.00;;;46.10;;
23802;SDS011;12082;51.786;6.018;2022-12-11T04:19:59;97.97;;;47.67;;
23802;SDS011;12082;51.786;6.018;2022-12-11T04:22:43;96.60;;;42.23;;
23802;SDS011;12082;51.786;6.018;2022-12-11T04:25:28;103.57;;;43.20;;
23802;SDS011;12082;51.786;6.018;2022-12-11T04:27:54;107.03;;;43.30;;
23802;SDS011;12082;51.786;6.018;2022-12-11T04:30:21;102.97;;;43.13;;
23802;SDS011;12082;51.786;6.018;2022-12-11T04:32:47;75.37;;;43.03;;
23802;SDS011;12082;51.786;6.018;2022-12-11T04:35:14;89.97;;;41.70;;
23802;SDS011;12082;51.786;6.018;2022-12-11T04:37:40;94.43;;;43.83;;
23802;SDS011;12082;51.786;6.018;2022-12-11T04:40:08;84.10;;;42.43;;
23802;SDS011;12082;51.786;6.018;2022-12-11T04:42:34;94.83;;;47.27;;
23802;SDS011;12082;51.786;6.018;2022-12-11T04:45:00;93.27;;;43.60;;
23802;SDS011;12082;51.786;6.018;2022-12-11T04:47:26;93.90;;;44.40;;
23802;SDS011;12082;51.786;6.018;2022-12-11T04:49:52;92.77;;;43.93;;
23802;SDS011;12082;51.786;6.018;2022-12-11T04:52:18;94.30;;;43.40;;
23802;SDS011;12082;51.786;6.018;2022-12-11T04:54:45;96.27;;;45.00;;
23802;SDS011;12082;51.786;6.018;2022-12-11T04:57:11;96.63;;;44.97;;
23802;SDS011;12082;51.786;6.018;2022-12-11T04:59:37;90.70;;;45.27;;
23802;SDS011;12082;51.786;6.018;2022-12-11T05:02:03;89.77;;;43.70;;
23802;SDS011;12082;51.786;6.018;2022-12-11T05:04:30;92.90;;;43.53;;
23802;SDS011;12082;51.786;6.018;2022-12-11T05:06:57;89.70;;;43.03;;
23802;SDS011;12082;51.786;6.018;2022-12-11T05:09:23;96.90;;;44.50;;
23802;SDS011;12082;51.786;6.018;2022-12-11T05:11:50;94.53;;;44.33;;
23802;SDS011;12082;51.786;6.018;2022-12-11T05:14:16;88.57;;;44.53;;
23802;SDS011;12082;51.786;6.018;2022-12-11T05:16:42;89.73;;;45.00;;
23802;SDS011;12082;51.786;6.018;2022-12-11T05:19:08;84.90;;;44.47;;
23802;SDS011;12082;51.786;6.018;2022-12-11T05:21:34;87.57;;;46.00;;
23802;SDS011;12082;51.786;6.018;2022-12-11T05:23:59;86.80;;;45.07;;
23802;SDS011;12082;51.786;6.018;2022-12-11T05:26:25;88.13;;;44.00;;
23802;SDS011;12082;51.786;6.018;2022-12-11T05:28:52;88.07;;;43.97;;
23802;SDS011;12082;51.786;6.018;2022-12-11T05:31:19;81.97;;;44.50;;
23802;SDS011;12082;51.786;6.018;2022-12-11T05:33:46;96.73;;;45.73;;
23802;SDS011;12082;51.786;6.018;2022-12-11T05:36:18;94.23;;;45.07;;
23802;SDS011;12082;51.786;6.018;2022-12-11T05:38:45;82.37;;;42.10;;
23802;SDS011;12082;51.786;6.018;2022-12-11T05:41:11;80.47;;;41.00;;
23802;SDS011;12082;51.786;6.018;2022-12-11T05:43:37;86.77;;;41.47;;
23802;SDS011;12082;51.786;6.018;2022-12-11T05:46:11;89.03;;;45.27;;
23802;SDS011;12082;51.786;6.018;2022-12-11T05:48:37;83.93;;;40.93;;
23802;SDS011;12082;51.786;6.018;2022-12-11T05:51:04;79.40;;;42.20;;
23802;SDS011;12082;51.786;6.018;2022-12-11T05:53:30;76.43;;;42.40;;
23802;SDS011;12082;51.786;6.018;2022-12-11T05:56:03;82.13;;;43.60;;
23802;SDS011;12082;51.786;6.018;2022-12-11T05:58:30;87.00;;;42.53;;
23802;SDS011;12082;51.786;6.018;2022-12-11T06:00:56;85.37;;;43.00;;
23802;SDS011;12082;51.786;6.018;2022-12-11T06:03:22;65.60;;;39.73;;
23802;SDS011;12082;51.786;6.018;2022-12-11T06:05:48;68.10;;;41.27;;
23802;SDS011;12082;51.786;6.018;2022-12-11T06:08:14;73.13;;;41.80;;
23802;SDS011;12082;51.786;6.018;2022-12-11T06:10:46;70.53;;;41.13;;
23802;SDS011;12082;51.786;6.018;2022-12-11T06:13:12;76.73;;;41.10;;
23802;SDS011;12082;51.786;6.018;2022-12-11T06:15:38;68.90;;;39.77;;
23802;SDS011;12082;51.786;6.018;2022-12-11T06:18:04;61.00;;;37.17;;
23802;SDS011;12082;51.786;6.018;2022-12-11T06:20:31;65.47;;;40.67;;
23802;SDS011;12082;51.786;6.018;2022-12-11T06:22:58;61.30;;;36.17;;
23802;SDS011;12082;51.786;6.018;2022-12-11T06:25:24;65.03;;;37.80;;
23802;SDS011;12082;51.786;6.018;2022-12-11T06:27:50;58.57;;;35.83;;
23802;SDS011;12082;51.786;6.018;2022-12-11T06:30:16;67.17;;;39.23;;
23802;SDS011;12082;51.786;6.018;2022-12-11T06:32:42;70.10;;;36.60;;
23802;SDS011;12082;51.786;6.018;2022-12-11T06:35:08;64.20;;;36.63;;
23802;SDS011;12082;51.786;6.018;2022-12-11T06:37:35;58.50;;;37.27;;
23802;SDS011;12082;51.786;6.018;2022-12-11T06:40:01;69.80;;;36.90;;
23802;SDS011;12082;51.786;6.018;2022-12-11T06:42:30;58.30;;;36.87;;
23802;SDS011;12082;51.786;6.018;2022-12-11T06:44:56;60.17;;;36.73;;
23802;SDS011;12082;51.786;6.018;2022-12-11T06:47:27;53.20;;;36.87;;
23802;SDS011;12082;51.786;6.018;2022-12-11T06:49:53;54.53;;;37.13;;
23802;SDS011;12082;51.786;6.018;2022-12-11T06:52:19;55.27;;;38.47;;
23802;SDS011;12082;51.786;6.018;2022-12-11T06:54:46;67.03;;;38.17;;
23802;SDS011;12082;51.786;6.018;2022-12-11T06:57:12;69.77;;;40.53;;
23802;SDS011;12082;51.786;6.018;2022-12-11T06:59:38;57.17;;;36.90;;
23802;SDS011;12082;51.786;6.018;2022-12-11T07:02:04;57.77;;;36.43;;
23802;SDS011;12082;51.786;6.018;2022-12-11T07:04:30;54.73;;;36.20;;
23802;SDS011;12082;51.786;6.018;2022-12-11T07:06:56;59.30;;;36.67;;
23802;SDS011;12082;51.786;6.018;2022-12-11T07:09:22;49.70;;;34.47;;
23802;SDS011;12082;51.786;6.018;2022-12-11T07:11:49;50.03;;;36.70;;
23802;SDS011;12082;51.786;6.018;2022-12-11T07:14:15;58.80;;;34.67;;
23802;SDS011;12082;51.786;6.018;2022-12-11T07:16:41;57.17;;;34.97;;
23802;SDS011;12082;51.786;6.018;2022-12-11T07:19:07;44.43;;;34.53;;
23802;SDS011;12082;51.786;6.018;2022-12-11T07:21:33;49.57;;;33.93;;
23802;SDS011;12082;51.786;6.018;2022-12-11T07:23:59;48.03;;;32.97;;
23802;SDS011;12082;51.786;6.018;2022-12-11T07:26:25;49.17;;;32.83;;
23802;SDS011;12082;51.786;6.018;2022-12-11T07:28:51;47.93;;;32.83;;
23802;SDS011;12082;51.786;6.018;2022-12-11T07:31:18;47.53;;;33.73;;
23802;SDS011;12082;51.786;6.018;2022-12-11T07:33:44;49.67;;;34.80;;
23802;SDS011;12082;51.786;6.018;2022-12-11T07:36:11;43.33;;;33.10;;
23802;SDS011;12082;51.786;6.018;2022-12-11T07:38:37;54.77;;;36.37;;
23802;SDS011;12082;51.786;6.018;2022-12-11T07:41:04;55.30;;;38.53;;
23802;SDS011;12082;51.786;6.018;2022-12-11T07:43:30;53.60;;;37.60;;
23802;SDS011;12082;51.786;6.018;2022-12-11T07:46:00;53.87;;;36.57;;
23802;SDS011;12082;51.786;6.018;2022-12-11T07:48:26;53.83;;;36.37;;
23802;SDS011;12082;51.786;6.018;2022-12-11T07:50:52;55.63;;;37.00;;
23802;SDS011;12082;51.786;6.018;2022-12-11T07:53:18;60.47;;;36.20;;
23802;SDS011;12082;51.786;6.018;2022-12-11T07:55:44;67.23;;;35.90;;
23802;SDS011;12082;51.786;6.018;2022-12-11T07:58:10;55.70;;;37.80;;
23802;SDS011;12082;51.786;6.018;2022-12-11T08:00:36;55.87;;;36.77;;
23802;SDS011;12082;51.786;6.018;2022-12-11T08:03:02;52.27;;;35.80;;
23802;SDS011;12082;51.786;6.018;2022-12-11T08:05:28;53.40;;;35.37;;
23802;SDS011;12082;51.786;6.018;2022-12-11T08:07:54;48.70;;;33.80;;
23802;SDS011;12082;51.786;6.018;2022-12-11T08:10:20;55.00;;;34.43;;
23802;SDS011;12082;51.786;6.018;2022-12-11T08:12:46;47.70;;;33.67;;
23802;SDS011;12082;51.786;6.018;2022-12-11T08:15:12;50.17;;;36.20;;
23802;SDS011;12082;51.786;6.018;2022-12-11T08:17:38;49.23;;;35.63;;
23802;SDS011;12082;51.786;6.018;2022-12-11T08:20:04;38.50;;;33.80;;
23802;SDS011;12082;51.786;6.018;2022-12-11T08:22:30;40.40;;;32.87;;
23802;SDS011;12082;51.786;6.018;2022-12-11T08:24:56;41.40;;;34.20;;
23802;SDS011;12082;51.786;6.018;2022-12-11T08:27:22;43.37;;;33.70;;
23802;SDS011;12082;51.786;6.018;2022-12-11T08:29:48;45.43;;;33.60;;
23802;SDS011;12082;51.786;6.018;2022-12-11T08:32:14;36.87;;;30.73;;
23802;SDS011;12082;51.786;6.018;2022-12-11T08:34:41;45.87;;;33.57;;
23802;SDS011;12082;51.786;6.018;2022-12-11T08:37:08;40.07;;;31.67;;
23802;SDS011;12082;51.786;6.018;2022-12-11T08:39:34;42.57;;;34.30;;
23802;SDS011;12082;51.786;6.018;2022-12-11T08:42:00;40.23;;;33.20;;
23802;SDS011;12082;51.786;6.018;2022-12-11T08:44:26;44.17;;;33.27;;
23802;SDS011;12082;51.786;6.018;2022-12-11T08:46:52;36.93;;;31.33;;
23802;SDS011;12082;51.786;6.018;2022-12-11T08:49:18;37.60;;;32.40;;
23802;SDS011;12082;51.786;6.018;2022-12-11T08:51:44;40.47;;;33.27;;
23802;SDS011;12082;51.786;6.018;2022-12-11T08:54:10;39.70;;;32.17;;
23802;SDS011;12082;51.786;6.018;2022-12-11T08:56:36;36.63;;;31.47;;
23802;SDS011;12082;51.786;6.018;2022-12-11T08:59:02;35.53;;;31.17;;
23802;SDS011;12082;51.786;6.018;2022-12-11T09:01:30;36.43;;;30.63;;
23802;SDS011;12082;51.786;6.018;2022-12-11T09:03:56;39.73;;;32.23;;
23802;SDS011;12082;51.786;6.018;2022-12-11T09:06:25;39.57;;;31.70;;
23802;SDS011;12082;51.786;6.018;2022-12-11T09:08:51;36.90;;;30.47;;
23802;SDS011;12082;51.786;6.018;2022-12-11T09:11:19;37.97;;;33.17;;
23802;SDS011;12082;51.786;6.018;2022-12-11T09:13:45;40.13;;;31.27;;
23802;SDS011;12082;51.786;6.018;2022-12-11T09:16:12;37.37;;;31.83;;
23802;SDS011;12082;51.786;6.018;2022-12-11T09:18:39;36.30;;;31.47;;
23802;SDS011;12082;51.786;6.018;2022-12-11T09:21:06;35.53;;;31.17;;
23802;SDS011;12082;51.786;6.018;2022-12-11T09:23:32;39.07;;;32.10;;
23802;SDS011;12082;51.786;6.018;2022-12-11T09:25:58;39.80;;;31.17;;
23802;SDS011;12082;51.786;6.018;2022-12-11T09:28:24;34.67;;;30.87;;
23802;SDS011;12082;51.786;6.018;2022-12-11T09:30:50;35.77;;;31.13;;
23802;SDS011;12082;51.786;6.018;2022-12-11T09:33:16;33.53;;;29.93;;
23802;SDS011;12082;51.786;6.018;2022-12-11T09:35:42;36.93;;;31.50;;
23802;SDS011;12082;51.786;6.018;2022-12-11T09:38:08;37.47;;;32.10;;
23802;SDS011;12082;51.786;6.018;2022-12-11T09:40:39;37.60;;;30.13;;
23802;SDS011;12082;51.786;6.018;2022-12-11T09:43:06;36.07;;;30.83;;
23802;SDS011;12082;51.786;6.018;2022-12-11T09:45:33;35.03;;;31.33;;
23802;SDS011;12082;51.786;6.018;2022-12-11T09:47:59;37.53;;;31.20;;
23802;SDS011;12082;51.786;6.018;2022-12-11T09:50:27;38.60;;;33.93;;
23802;SDS011;12082;51.786;6.018;2022-12-11T09:53:02;37.40;;;32.50;;
23802;SDS011;12082;51.786;6.018;2022-12-11T09:55:53;39.00;;;32.07;;
23802;SDS011;12082;51.786;6.018;2022-12-11T09:58:31;36.83;;;32.83;;
23802;SDS011;12082;51.786;6.018;2022-12-11T10:01:14;41.07;;;33.57;;
23802;SDS011;12082;51.786;6.018;2022-12-11T10:11:28;42.23;;;34.27;;
23802;SDS011;12082;51.786;6.018;2022-12-11T10:16:42;38.17;;;31.90;;
23802;SDS011;12082;51.786;6.018;2022-12-11T10:19:28;41.20;;;32.60;;
23802;SDS011;12082;51.786;6.018;2022-12-11T10:21:54;37.97;;;32.43;;
23802;SDS011;12082;51.786;6.018;2022-12-11T10:24:27;40.10;;;31.63;;
23802;SDS011;12082;51.786;6.018;2022-12-11T10:26:55;39.27;;;32.33;;
23802;SDS011;12082;51.786;6.018;2022-12-11T10:29:23;42.77;;;32.07;;
23802;SDS011;12082;51.786;6.018;2022-12-11T10:31:55;41.23;;;32.37;;
23802;SDS011;12082;51.786;6.018;2022-12-11T10:36:48;41.83;;;33.70;;
23802;SDS011;12082;51.786;6.018;2022-12-11T10:39:18;40.93;;;34.00;;
23802;SDS011;12082;51.786;6.018;2022-12-11T10:41:45;45.40;;;34.87;;
23802;SDS011;12082;51.786;6.018;2022-12-11T10:46:41;44.87;;;33.07;;
23802;SDS011;12082;51.786;6.018;2022-12-11T10:49:17;37.17;;;33.07;;
23802;SDS011;12082;51.786;6.018;2022-12-11T10:51:45;37.37;;;31.57;;
23802;SDS011;12082;51.786;6.018;2022-12-11T10:56:44;39.47;;;32.37;;
23802;SDS011;12082;51.786;6.018;2022-12-11T10:59:13;45.10;;;32.57;;
23802;SDS011;12082;51.786;6.018;2022-12-11T11:01:47;37.30;;;31.70;;
23802;SDS011;12082;51.786;6.018;2022-12-11T11:04:13;33.97;;;30.23;;
23802;SDS011;12082;51.786;6.018;2022-12-11T11:06:39;36.80;;;29.73;;
23802;SDS011;12082;51.786;6.018;2022-12-11T11:09:25;33.40;;;29.90;;
23802;SDS011;12082;51.786;6.018;2022-12-11T11:11:52;38.00;;;32.07;;
23802;SDS011;12082;51.786;6.018;2022-12-11T11:14:19;33.77;;;30.00;;
23802;SDS011;12082;51.786;6.018;2022-12-11T11:16:46;33.23;;;29.73;;
23802;SDS011;12082;51.786;6.018;2022-12-11T11:19:31;39.37;;;29.57;;
23802;SDS011;12082;51.786;6.018;2022-12-11T11:22:00;36.47;;;29.83;;
23802;SDS011;12082;51.786;6.018;2022-12-11T11:26:56;34.63;;;30.27;;
23802;SDS011;12082;51.786;6.018;2022-12-11T11:29:25;37.20;;;31.77;;
23802;SDS011;12082;51.786;6.018;2022-12-11T11:31:52;38.50;;;32.47;;
23802;SDS011;12082;51.786;6.018;2022-12-11T11:34:19;37.80;;;32.13;;
23802;SDS011;12082;51.786;6.018;2022-12-11T11:36:54;43.73;;;32.30;;
23802;SDS011;12082;51.786;6.018;2022-12-11T11:39:34;33.73;;;30.13;;
23802;SDS011;12082;51.786;6.018;2022-12-11T11:42:05;39.30;;;30.30;;
23802;SDS011;12082;51.786;6.018;2022-12-11T11:44:39;38.50;;;31.60;;
23802;SDS011;12082;51.786;6.018;2022-12-11T11:47:13;38.60;;;32.57;;
23802;SDS011;12082;51.786;6.018;2022-12-11T11:54:45;39.07;;;31.97;;
23802;SDS011;12082;51.786;6.018;2022-12-11T11:57:14;36.97;;;31.03;;
23802;SDS011;12082;51.786;6.018;2022-12-11T11:59:52;36.00;;;31.63;;
23802;SDS011;12082;51.786;6.018;2022-12-11T12:02:19;38.30;;;30.83;;
23802;SDS011;12082;51.786;6.018;2022-12-11T12:04:45;35.60;;;31.73;;
23802;SDS011;12082;51.786;6.018;2022-12-11T12:09:58;40.33;;;32.70;;
23802;SDS011;12082;51.786;6.018;2022-12-11T12:12:35;35.07;;;31.07;;
23802;SDS011;12082;51.786;6.018;2022-12-11T12:17:44;33.50;;;29.53;;
23802;SDS011;12082;51.786;6.018;2022-12-11T12:25:44;35.60;;;29.63;;
23802;SDS011;12082;51.786;6.018;2022-12-11T12:30:42;34.87;;;30.20;;
23802;SDS011;12082;51.786;6.018;2022-12-11T12:36:01;32.80;;;28.70;;
23802;SDS011;12082;51.786;6.018;2022-12-11T12:41:16;33.60;;;29.97;;
23802;SDS011;12082;51.786;6.018;2022-12-11T12:43:51;33.87;;;29.50;;
23802;SDS011;12082;51.786;6.018;2022-12-11T12:48:44;36.87;;;30.43;;
23802;SDS011;12082;51.786;6.018;2022-12-11T12:51:13;33.47;;;29.70;;
23802;SDS011;12082;51.786;6.018;2022-12-11T12:53:41;34.97;;;30.10;;
23802;SDS011;12082;51.786;6.018;2022-12-11T12:56:09;35.67;;;30.30;;
23802;SDS011;12082;51.786;6.018;2022-12-11T12:58:40;33.00;;;28.87;;
23802;SDS011;12082;51.786;6.018;2022-12-11T13:03:56;35.03;;;29.37;;
23802;SDS011;12082;51.786;6.018;2022-12-11T13:09:12;33.47;;;29.20;;
23802;SDS011;12082;51.786;6.018;2022-12-11T13:11:39;32.57;;;29.07;;
23802;SDS011;12082;51.786;6.018;2022-12-11T13:16:41;32.80;;;29.27;;
23802;SDS011;12082;51.786;6.018;2022-12-11T13:21:56;33.07;;;29.57;;
23802;SDS011;12082;51.786;6.018;2022-12-11T13:24:25;32.20;;;28.67;;
23802;SDS011;12082;51.786;6.018;2022-12-11T13:26:51;32.73;;;29.17;;
23802;SDS011;12082;51.786;6.018;2022-12-11T13:31:57;35.07;;;29.70;;
23802;SDS011;12082;51.786;6.018;2022-12-11T13:34:23;37.43;;;30.77;;
23802;SDS011;12082;51.786;6.018;2022-12-11T13:36:50;34.47;;;30.57;;
23802;SDS011;12082;51.786;6.018;2022-12-11T13:39:26;33.43;;;29.67;;
23802;SDS011;12082;51.786;6.018;2022-12-11T13:41:55;34.97;;;29.13;;
23802;SDS011;12082;51.786;6.018;2022-12-11T14:05:08;31.37;;;28.13;;
23802;SDS011;12082;51.786;6.018;2022-12-11T14:07:36;32.63;;;28.60;;
23802;SDS011;12082;51.786;6.018;2022-12-11T14:10:17;32.93;;;28.03;;
23802;SDS011;12082;51.786;6.018;2022-12-11T14:12:45;33.20;;;28.53;;
23802;SDS011;12082;51.786;6.018;2022-12-11T14:15:12;31.67;;;28.23;;
23802;SDS011;12082;51.786;6.018;2022-12-11T14:17:39;32.30;;;28.30;;
23802;SDS011;12082;51.786;6.018;2022-12-11T14:20:10;31.57;;;27.83;;
23802;SDS011;12082;51.786;6.018;2022-12-11T14:22:40;32.50;;;29.10;;
23802;SDS011;12082;51.786;6.018;2022-12-11T14:25:15;31.13;;;27.90;;
23802;SDS011;12082;51.786;6.018;2022-12-11T14:27:48;34.50;;;30.20;;
23802;SDS011;12082;51.786;6.018;2022-12-11T14:30:25;32.47;;;29.17;;
23802;SDS011;12082;51.786;6.018;2022-12-11T14:32:58;35.20;;;30.67;;
23802;SDS011;12082;51.786;6.018;2022-12-11T14:35:31;36.23;;;31.73;;
23802;SDS011;12082;51.786;6.018;2022-12-11T14:37:59;38.37;;;31.30;;
23802;SDS011;12082;51.786;6.018;2022-12-11T14:40:34;36.53;;;30.73;;
23802;SDS011;12082;51.786;6.018;2022-12-11T14:43:03;48.57;;;32.23;;
23802;SDS011;12082;51.786;6.018;2022-12-11T14:45:33;37.57;;;30.90;;
23802;SDS011;12082;51.786;6.018;2022-12-11T14:48:00;32.67;;;29.37;;
23802;SDS011;12082;51.786;6.018;2022-12-11T14:50:30;33.83;;;30.27;;
23802;SDS011;12082;51.786;6.018;2022-12-11T14:53:01;35.50;;;31.40;;
23802;SDS011;12082;51.786;6.018;2022-12-11T14:55:29;36.03;;;30.67;;
23802;SDS011;12082;51.786;6.018;2022-12-11T14:57:57;34.17;;;30.43;;
23802;SDS011;12082;51.786;6.018;2022-12-11T15:00:31;36.97;;;29.83;;
23802;SDS011;12082;51.786;6.018;2022-12-11T15:03:00;37.93;;;30.77;;
23802;SDS011;12082;51.786;6.018;2022-12-11T15:05:27;42.23;;;30.57;;
23802;SDS011;12082;51.786;6.018;2022-12-11T15:10:29;37.30;;;29.30;;
23802;SDS011;12082;51.786;6.018;2022-12-11T15:12:56;35.53;;;29.63;;
23802;SDS011;12082;51.786;6.018;2022-12-11T15:15:23;35.57;;;29.13;;
23802;SDS011;12082;51.786;6.018;2022-12-11T15:17:49;36.83;;;30.60;;
23802;SDS011;12082;51.786;6.018;2022-12-11T15:20:20;34.87;;;30.47;;
23802;SDS011;12082;51.786;6.018;2022-12-11T15:22:46;38.10;;;30.87;;
23802;SDS011;12082;51.786;6.018;2022-12-11T15:25:23;35.70;;;30.70;;
23802;SDS011;12082;51.786;6.018;2022-12-11T15:27:50;36.93;;;31.13;;
23802;SDS011;12082;51.786;6.018;2022-12-11T15:32:44;35.17;;;30.37;;
23802;SDS011;12082;51.786;6.018;2022-12-11T15:35:23;36.67;;;29.87;;
23802;SDS011;12082;51.786;6.018;2022-12-11T15:37:53;33.77;;;30.13;;
23802;SDS011;12082;51.786;6.018;2022-12-11T15:40:20;37.00;;;28.93;;
23802;SDS011;12082;51.786;6.018;2022-12-11T15:42:46;40.53;;;31.77;;
23802;SDS011;12082;51.786;6.018;2022-12-11T15:45:15;39.40;;;31.37;;
23802;SDS011;12082;51.786;6.018;2022-12-11T15:47:42;38.37;;;30.50;;
23802;SDS011;12082;51.786;6.018;2022-12-11T15:50:23;33.87;;;30.33;;
23802;SDS011;12082;51.786;6.018;2022-12-11T15:52:50;35.07;;;29.33;;
23802;SDS011;12082;51.786;6.018;2022-12-11T15:55:16;40.20;;;29.67;;
23802;SDS011;12082;51.786;6.018;2022-12-11T15:57:47;33.73;;;29.07;;
23802;SDS011;12082;51.786;6.018;2022-12-11T16:00:14;34.40;;;29.63;;
23802;SDS011;12082;51.786;6.018;2022-12-11T16:02:41;37.77;;;29.63;;
23802;SDS011;12082;51.786;6.018;2022-12-11T16:05:07;38.77;;;30.60;;